sensor_id;sensor_type;location;lat;lon;timestamp;P1;durP1;ratioP1;P2;durP2;ratioP2
67352;SDS011;54238;52.278;21.056;2023-07-13T00:01:21;12.60;;;9.20;;
67352;SDS011;54238;52.278;21.056;2023-07-13T00:03:50;11.70;;;8.50;;
67352;SDS011;54238;52.278;21.056;2023-07-13T00:06:20;15.10;;;9.20;;
67352;SDS011;54238;52.278;21.056;2023-07-13T00:08:49;14.20;;;8.80;;
67352;SDS011;54238;52.278;21.056;2023-07-13T00:11:17;11.30;;;8.20;;
67352;SDS011;54238;52.278;21.056;2023-07-13T00:13:46;14.20;;;7.60;;
67352;SDS011;54238;52.278;21.056;2023-07-13T00:16:16;15.20;;;9.40;;
67352;SDS011;54238;52.278;21.056;2023-07-13T00:18:48;14.10;;;8.90;;
67352;SDS011;54238;52.278;21.056;2023-07-13T00:21:17;13.00;;;8.80;;
67352;SDS011;54238;52.278;21.056;2023-07-13T00:23:49;13.40;;;8.10;;
67352;SDS011;54238;52.278;21.056;2023-07-13T00:26:19;10.10;;;8.80;;
67352;SDS011;54238;52.278;21.056;2023-07-13T00:28:52;10.70;;;7.90;;
67352;SDS011;54238;52.278;21.056;2023-07-13T00:31:22;13.20;;;8.80;;
67352;SDS011;54238;52.278;21.056;2023-07-13T00:33:52;13.00;;;8.70;;
67352;SDS011;54238;52.278;21.056;2023-07-13T00:36:21;14.40;;;9.60;;
67352;SDS011;54238;52.278;21.056;2023-07-13T00:38:48;10.30;;;7.80;;
67352;SDS011;54238;52.278;21.056;2023-07-13T00:41:18;10.70;;;8.30;;
67352;SDS011;54238;52.278;21.056;2023-07-13T00:43:50;15.90;;;10.30;;
67352;SDS011;54238;52.278;21.056;2023-07-13T00:46:23;17.30;;;10.50;;
67352;SDS011;54238;52.278;21.056;2023-07-13T00:49:03;12.50;;;9.40;;
67352;SDS011;54238;52.278;21.056;2023-07-13T00:54:15;14.80;;;9.30;;
67352;SDS011;54238;52.278;21.056;2023-07-13T00:56:51;17.50;;;10.30;;
67352;SDS011;54238;52.278;21.056;2023-07-13T00:59:24;13.20;;;9.30;;
67352;SDS011;54238;52.278;21.056;2023-07-13T01:01:54;21.90;;;10.50;;
67352;SDS011;54238;52.278;21.056;2023-07-13T01:04:24;15.40;;;9.40;;
67352;SDS011;54238;52.278;21.056;2023-07-13T01:06:59;18.70;;;10.10;;
67352;SDS011;54238;52.278;21.056;2023-07-13T01:09:27;17.30;;;10.20;;
67352;SDS011;54238;52.278;21.056;2023-07-13T01:11:57;14.30;;;10.30;;
67352;SDS011;54238;52.278;21.056;2023-07-13T01:14:26;19.20;;;10.90;;
67352;SDS011;54238;52.278;21.056;2023-07-13T01:16:58;17.20;;;11.60;;
67352;SDS011;54238;52.278;21.056;2023-07-13T01:22:15;19.70;;;11.30;;
67352;SDS011;54238;52.278;21.056;2023-07-13T01:24:45;15.70;;;12.00;;
67352;SDS011;54238;52.278;21.056;2023-07-13T01:27:21;18.80;;;12.00;;
67352;SDS011;54238;52.278;21.056;2023-07-13T01:29:52;17.20;;;11.50;;
67352;SDS011;54238;52.278;21.056;2023-07-13T01:32:31;18.90;;;11.50;;
67352;SDS011;54238;52.278;21.056;2023-07-13T01:35:00;19.60;;;11.10;;
67352;SDS011;54238;52.278;21.056;2023-07-13T01:37:30;19.80;;;12.10;;
67352;SDS011;54238;52.278;21.056;2023-07-13T01:40:06;17.90;;;11.50;;
67352;SDS011;54238;52.278;21.056;2023-07-13T01:42:35;16.40;;;11.10;;
67352;SDS011;54238;52.278;21.056;2023-07-13T01:45:03;20.50;;;12.20;;
67352;SDS011;54238;52.278;21.056;2023-07-13T01:47:30;18.60;;;12.10;;
67352;SDS011;54238;52.278;21.056;2023-07-13T01:49:57;19.70;;;12.60;;
67352;SDS011;54238;52.278;21.056;2023-07-13T01:52:24;24.80;;;13.20;;
67352;SDS011;54238;52.278;21.056;2023-07-13T01:54:54;19.50;;;11.10;;
67352;SDS011;54238;52.278;21.056;2023-07-13T01:57:24;22.20;;;12.30;;
67352;SDS011;54238;52.278;21.056;2023-07-13T01:59:53;22.60;;;11.80;;
67352;SDS011;54238;52.278;21.056;2023-07-13T02:02:25;22.40;;;11.90;;
67352;SDS011;54238;52.278;21.056;2023-07-13T02:04:53;20.90;;;12.10;;
67352;SDS011;54238;52.278;21.056;2023-07-13T02:07:25;20.50;;;12.20;;
67352;SDS011;54238;52.278;21.056;2023-07-13T02:09:52;20.80;;;11.80;;
67352;SDS011;54238;52.278;21.056;2023-07-13T02:12:19;22.90;;;12.90;;
67352;SDS011;54238;52.278;21.056;2023-07-13T02:14:46;20.20;;;13.00;;
67352;SDS011;54238;52.278;21.056;2023-07-13T02:17:16;20.00;;;12.40;;
67352;SDS011;54238;52.278;21.056;2023-07-13T02:19:45;18.70;;;12.60;;
67352;SDS011;54238;52.278;21.056;2023-07-13T02:22:14;16.50;;;11.60;;
67352;SDS011;54238;52.278;21.056;2023-07-13T02:24:46;16.40;;;12.00;;
67352;SDS011;54238;52.278;21.056;2023-07-13T02:27:16;16.80;;;10.90;;
67352;SDS011;54238;52.278;21.056;2023-07-13T02:29:47;17.10;;;10.60;;
67352;SDS011;54238;52.278;21.056;2023-07-13T02:32:18;20.80;;;11.50;;
67352;SDS011;54238;52.278;21.056;2023-07-13T02:34:50;14.70;;;10.70;;
67352;SDS011;54238;52.278;21.056;2023-07-13T02:37:22;16.90;;;11.80;;
67352;SDS011;54238;52.278;21.056;2023-07-13T02:39:51;12.60;;;10.80;;
67352;SDS011;54238;52.278;21.056;2023-07-13T02:44:54;15.60;;;11.00;;
67352;SDS011;54238;52.278;21.056;2023-07-13T02:47:21;14.50;;;11.20;;
67352;SDS011;54238;52.278;21.056;2023-07-13T02:49:48;14.80;;;11.10;;
67352;SDS011;54238;52.278;21.056;2023-07-13T02:52:18;13.60;;;10.60;;
67352;SDS011;54238;52.278;21.056;2023-07-13T02:54:49;15.80;;;11.50;;
67352;SDS011;54238;52.278;21.056;2023-07-13T02:57:16;13.90;;;10.70;;
67352;SDS011;54238;52.278;21.056;2023-07-13T02:59:43;14.80;;;11.70;;
67352;SDS011;54238;52.278;21.056;2023-07-13T03:02:12;16.90;;;12.00;;
67352;SDS011;54238;52.278;21.056;2023-07-13T03:04:39;18.90;;;11.80;;
67352;SDS011;54238;52.278;21.056;2023-07-13T03:07:09;15.10;;;11.90;;
67352;SDS011;54238;52.278;21.056;2023-07-13T03:09:36;16.60;;;11.40;;
67352;SDS011;54238;52.278;21.056;2023-07-13T03:12:04;14.40;;;11.10;;
67352;SDS011;54238;52.278;21.056;2023-07-13T03:14:34;16.10;;;10.30;;
67352;SDS011;54238;52.278;21.056;2023-07-13T03:17:01;16.80;;;11.70;;
67352;SDS011;54238;52.278;21.056;2023-07-13T03:19:28;14.90;;;11.60;;
67352;SDS011;54238;52.278;21.056;2023-07-13T03:21:57;16.60;;;12.20;;
67352;SDS011;54238;52.278;21.056;2023-07-13T03:24:26;13.70;;;11.20;;
67352;SDS011;54238;52.278;21.056;2023-07-13T03:26:55;16.00;;;11.00;;
67352;SDS011;54238;52.278;21.056;2023-07-13T03:29:28;15.60;;;12.00;;
67352;SDS011;54238;52.278;21.056;2023-07-13T03:31:57;17.60;;;11.30;;
67352;SDS011;54238;52.278;21.056;2023-07-13T03:34:25;15.20;;;11.30;;
67352;SDS011;54238;52.278;21.056;2023-07-13T03:36:56;16.20;;;11.50;;
67352;SDS011;54238;52.278;21.056;2023-07-13T03:39:25;16.40;;;12.20;;
67352;SDS011;54238;52.278;21.056;2023-07-13T03:41:57;15.80;;;11.10;;
67352;SDS011;54238;52.278;21.056;2023-07-13T03:44:30;15.50;;;11.70;;
67352;SDS011;54238;52.278;21.056;2023-07-13T03:47:00;15.80;;;11.70;;
67352;SDS011;54238;52.278;21.056;2023-07-13T03:49:27;18.60;;;11.90;;
67352;SDS011;54238;52.278;21.056;2023-07-13T03:51:57;14.90;;;11.80;;
67352;SDS011;54238;52.278;21.056;2023-07-13T03:54:27;16.30;;;13.10;;
67352;SDS011;54238;52.278;21.056;2023-07-13T03:56:58;16.50;;;12.20;;
67352;SDS011;54238;52.278;21.056;2023-07-13T03:59:29;21.50;;;13.20;;
67352;SDS011;54238;52.278;21.056;2023-07-13T04:01:56;14.80;;;11.80;;
67352;SDS011;54238;52.278;21.056;2023-07-13T04:04:25;15.60;;;12.50;;
67352;SDS011;54238;52.278;21.056;2023-07-13T04:09:26;18.50;;;13.10;;
67352;SDS011;54238;52.278;21.056;2023-07-13T04:11:54;18.70;;;13.40;;
67352;SDS011;54238;52.278;21.056;2023-07-13T04:14:21;21.10;;;13.10;;
67352;SDS011;54238;52.278;21.056;2023-07-13T04:16:55;17.90;;;13.30;;
67352;SDS011;54238;52.278;21.056;2023-07-13T04:19:24;21.00;;;13.40;;
67352;SDS011;54238;52.278;21.056;2023-07-13T04:21:52;18.60;;;14.10;;
67352;SDS011;54238;52.278;21.056;2023-07-13T04:24:23;19.70;;;13.50;;
67352;SDS011;54238;52.278;21.056;2023-07-13T04:26:53;19.40;;;13.40;;
67352;SDS011;54238;52.278;21.056;2023-07-13T04:29:28;21.50;;;13.20;;
67352;SDS011;54238;52.278;21.056;2023-07-13T04:31:55;20.80;;;14.40;;
67352;SDS011;54238;52.278;21.056;2023-07-13T04:34:25;18.70;;;15.00;;
67352;SDS011;54238;52.278;21.056;2023-07-13T04:36:55;18.10;;;13.50;;
67352;SDS011;54238;52.278;21.056;2023-07-13T04:39:24;16.40;;;13.30;;
67352;SDS011;54238;52.278;21.056;2023-07-13T04:41:54;15.60;;;12.30;;
67352;SDS011;54238;52.278;21.056;2023-07-13T04:44:23;16.60;;;13.70;;
67352;SDS011;54238;52.278;21.056;2023-07-13T04:46:51;20.60;;;14.40;;
67352;SDS011;54238;52.278;21.056;2023-07-13T04:49:18;19.50;;;13.20;;
67352;SDS011;54238;52.278;21.056;2023-07-13T04:51:45;16.30;;;12.40;;
67352;SDS011;54238;52.278;21.056;2023-07-13T04:54:15;20.30;;;13.50;;
67352;SDS011;54238;52.278;21.056;2023-07-13T04:56:45;18.40;;;13.70;;
67352;SDS011;54238;52.278;21.056;2023-07-13T04:59:14;16.30;;;12.70;;
67352;SDS011;54238;52.278;21.056;2023-07-13T05:01:43;17.70;;;11.90;;
67352;SDS011;54238;52.278;21.056;2023-07-13T05:04:11;18.50;;;13.50;;
67352;SDS011;54238;52.278;21.056;2023-07-13T05:06:40;17.50;;;13.30;;
67352;SDS011;54238;52.278;21.056;2023-07-13T05:09:12;17.00;;;12.80;;
67352;SDS011;54238;52.278;21.056;2023-07-13T05:11:39;17.80;;;12.50;;
67352;SDS011;54238;52.278;21.056;2023-07-13T05:14:06;19.20;;;13.20;;
67352;SDS011;54238;52.278;21.056;2023-07-13T05:16:39;18.20;;;13.70;;
67352;SDS011;54238;52.278;21.056;2023-07-13T05:19:08;20.20;;;13.80;;
67352;SDS011;54238;52.278;21.056;2023-07-13T05:21:38;20.30;;;14.20;;
67352;SDS011;54238;52.278;21.056;2023-07-13T05:24:08;20.70;;;13.80;;
67352;SDS011;54238;52.278;21.056;2023-07-13T05:26:37;16.60;;;12.70;;
67352;SDS011;54238;52.278;21.056;2023-07-13T05:29:05;23.10;;;14.00;;
67352;SDS011;54238;52.278;21.056;2023-07-13T05:31:37;17.60;;;13.50;;
67352;SDS011;54238;52.278;21.056;2023-07-13T05:34:07;20.20;;;13.80;;
67352;SDS011;54238;52.278;21.056;2023-07-13T05:36:36;17.50;;;13.90;;
67352;SDS011;54238;52.278;21.056;2023-07-13T05:39:06;20.60;;;13.60;;
67352;SDS011;54238;52.278;21.056;2023-07-13T05:41:33;18.60;;;13.80;;
67352;SDS011;54238;52.278;21.056;2023-07-13T05:44:09;23.70;;;14.10;;
67352;SDS011;54238;52.278;21.056;2023-07-13T05:46:38;19.10;;;13.70;;
67352;SDS011;54238;52.278;21.056;2023-07-13T05:49:08;24.50;;;14.80;;
67352;SDS011;54238;52.278;21.056;2023-07-13T05:51:37;21.80;;;16.30;;
67352;SDS011;54238;52.278;21.056;2023-07-13T05:54:04;18.50;;;15.20;;
67352;SDS011;54238;52.278;21.056;2023-07-13T05:56:34;16.80;;;13.40;;
67352;SDS011;54238;52.278;21.056;2023-07-13T05:59:01;18.00;;;13.60;;
67352;SDS011;54238;52.278;21.056;2023-07-13T06:01:30;23.30;;;15.90;;
67352;SDS011;54238;52.278;21.056;2023-07-13T06:03:58;19.40;;;14.30;;
67352;SDS011;54238;52.278;21.056;2023-07-13T06:06:27;21.70;;;16.70;;
67352;SDS011;54238;52.278;21.056;2023-07-13T06:08:57;23.70;;;16.90;;
67352;SDS011;54238;52.278;21.056;2023-07-13T06:11:28;22.70;;;14.90;;
67352;SDS011;54238;52.278;21.056;2023-07-13T06:13:59;20.20;;;14.00;;
67352;SDS011;54238;52.278;21.056;2023-07-13T06:16:31;21.20;;;12.90;;
67352;SDS011;54238;52.278;21.056;2023-07-13T06:19:01;28.00;;;13.90;;
67352;SDS011;54238;52.278;21.056;2023-07-13T06:21:33;22.90;;;15.50;;
67352;SDS011;54238;52.278;21.056;2023-07-13T06:24:00;22.00;;;14.90;;
67352;SDS011;54238;52.278;21.056;2023-07-13T06:26:32;17.70;;;13.20;;
67352;SDS011;54238;52.278;21.056;2023-07-13T06:28:59;22.80;;;15.40;;
67352;SDS011;54238;52.278;21.056;2023-07-13T06:31:31;24.40;;;20.50;;
67352;SDS011;54238;52.278;21.056;2023-07-13T06:34:01;17.80;;;12.70;;
67352;SDS011;54238;52.278;21.056;2023-07-13T06:36:30;18.60;;;13.10;;
67352;SDS011;54238;52.278;21.056;2023-07-13T06:38:58;26.60;;;18.40;;
67352;SDS011;54238;52.278;21.056;2023-07-13T06:41:29;20.50;;;14.10;;
67352;SDS011;54238;52.278;21.056;2023-07-13T06:43:57;17.40;;;11.50;;
67352;SDS011;54238;52.278;21.056;2023-07-13T06:46:32;16.20;;;12.40;;
67352;SDS011;54238;52.278;21.056;2023-07-13T06:48:59;13.40;;;9.10;;
67352;SDS011;54238;52.278;21.056;2023-07-13T06:51:33;13.60;;;8.10;;
67352;SDS011;54238;52.278;21.056;2023-07-13T06:54:04;17.10;;;8.80;;
67352;SDS011;54238;52.278;21.056;2023-07-13T06:56:38;11.00;;;8.80;;
67352;SDS011;54238;52.278;21.056;2023-07-13T06:59:05;14.00;;;9.90;;
67352;SDS011;54238;52.278;21.056;2023-07-13T07:01:35;17.60;;;9.30;;
67352;SDS011;54238;52.278;21.056;2023-07-13T07:04:04;13.00;;;7.80;;
67352;SDS011;54238;52.278;21.056;2023-07-13T07:06:31;12.60;;;7.10;;
67352;SDS011;54238;52.278;21.056;2023-07-13T07:09:01;8.20;;;6.40;;
67352;SDS011;54238;52.278;21.056;2023-07-13T07:11:37;10.40;;;5.60;;
67352;SDS011;54238;52.278;21.056;2023-07-13T07:14:09;9.40;;;5.50;;
67352;SDS011;54238;52.278;21.056;2023-07-13T07:16:36;9.40;;;5.20;;
67352;SDS011;54238;52.278;21.056;2023-07-13T07:19:06;7.30;;;5.70;;
67352;SDS011;54238;52.278;21.056;2023-07-13T07:21:33;9.50;;;5.00;;
67352;SDS011;54238;52.278;21.056;2023-07-13T07:24:02;6.60;;;5.90;;
67352;SDS011;54238;52.278;21.056;2023-07-13T07:26:31;9.70;;;5.80;;
67352;SDS011;54238;52.278;21.056;2023-07-13T07:28:58;9.10;;;6.00;;
67352;SDS011;54238;52.278;21.056;2023-07-13T07:31:28;14.30;;;6.10;;
67352;SDS011;54238;52.278;21.056;2023-07-13T07:33:58;10.00;;;6.00;;
67352;SDS011;54238;52.278;21.056;2023-07-13T07:36:25;11.50;;;6.50;;
67352;SDS011;54238;52.278;21.056;2023-07-13T07:38:55;10.10;;;6.30;;
67352;SDS011;54238;52.278;21.056;2023-07-13T07:41:22;15.30;;;5.60;;
67352;SDS011;54238;52.278;21.056;2023-07-13T07:43:52;8.30;;;5.80;;
67352;SDS011;54238;52.278;21.056;2023-07-13T07:46:21;7.40;;;5.80;;
67352;SDS011;54238;52.278;21.056;2023-07-13T07:48:51;7.70;;;5.40;;
67352;SDS011;54238;52.278;21.056;2023-07-13T07:51:21;6.70;;;4.90;;
67352;SDS011;54238;52.278;21.056;2023-07-13T07:53:50;5.20;;;4.00;;
67352;SDS011;54238;52.278;21.056;2023-07-13T07:56:19;5.00;;;4.20;;
67352;SDS011;54238;52.278;21.056;2023-07-13T07:58:49;7.40;;;4.80;;
67352;SDS011;54238;52.278;21.056;2023-07-13T08:01:16;6.90;;;5.40;;
67352;SDS011;54238;52.278;21.056;2023-07-13T08:03:47;8.50;;;5.30;;
67352;SDS011;54238;52.278;21.056;2023-07-13T08:06:19;8.00;;;5.50;;
67352;SDS011;54238;52.278;21.056;2023-07-13T08:08:47;6.40;;;5.60;;
67352;SDS011;54238;52.278;21.056;2023-07-13T08:11:17;6.00;;;4.80;;
67352;SDS011;54238;52.278;21.056;2023-07-13T08:13:44;6.30;;;4.70;;
67352;SDS011;54238;52.278;21.056;2023-07-13T08:16:11;6.90;;;4.60;;
67352;SDS011;54238;52.278;21.056;2023-07-13T08:18:41;7.40;;;4.20;;
67352;SDS011;54238;52.278;21.056;2023-07-13T08:21:11;6.30;;;5.00;;
67352;SDS011;54238;52.278;21.056;2023-07-13T08:23:38;6.70;;;5.20;;
67352;SDS011;54238;52.278;21.056;2023-07-13T08:26:09;6.60;;;5.40;;
67352;SDS011;54238;52.278;21.056;2023-07-13T08:28:41;8.30;;;5.40;;
67352;SDS011;54238;52.278;21.056;2023-07-13T08:31:12;9.90;;;5.20;;
67352;SDS011;54238;52.278;21.056;2023-07-13T08:33:42;6.20;;;5.20;;
67352;SDS011;54238;52.278;21.056;2023-07-13T08:36:09;6.40;;;5.10;;
67352;SDS011;54238;52.278;21.056;2023-07-13T08:38:38;8.20;;;5.00;;
67352;SDS011;54238;52.278;21.056;2023-07-13T08:41:18;8.00;;;5.40;;
67352;SDS011;54238;52.278;21.056;2023-07-13T08:43:58;6.10;;;4.70;;
67352;SDS011;54238;52.278;21.056;2023-07-13T08:49:09;7.50;;;5.00;;
67352;SDS011;54238;52.278;21.056;2023-07-13T08:54:37;5.20;;;4.70;;
67352;SDS011;54238;52.278;21.056;2023-07-13T08:57:13;8.40;;;5.10;;
67352;SDS011;54238;52.278;21.056;2023-07-13T08:59:45;6.80;;;6.00;;
67352;SDS011;54238;52.278;21.056;2023-07-13T09:05:18;8.40;;;5.80;;
67352;SDS011;54238;52.278;21.056;2023-07-13T09:16:55;9.40;;;5.60;;
67352;SDS011;54238;52.278;21.056;2023-07-13T09:19:28;7.20;;;5.20;;
67352;SDS011;54238;52.278;21.056;2023-07-13T09:22:01;8.40;;;5.90;;
67352;SDS011;54238;52.278;21.056;2023-07-13T09:25:35;7.50;;;5.30;;
67352;SDS011;54238;52.278;21.056;2023-07-13T09:27:48;6.80;;;3.80;;
67352;SDS011;54238;52.278;21.056;2023-07-13T09:30:30;8.10;;;3.80;;
67352;SDS011;54238;52.278;21.056;2023-07-13T09:32:59;3.90;;;3.40;;
67352;SDS011;54238;52.278;21.056;2023-07-13T09:35:28;4.90;;;3.90;;
67352;SDS011;54238;52.278;21.056;2023-07-13T09:38:12;4.70;;;3.40;;
67352;SDS011;54238;52.278;21.056;2023-07-13T09:41:14;4.90;;;3.80;;
67352;SDS011;54238;52.278;21.056;2023-07-13T09:44:14;3.80;;;3.10;;
67352;SDS011;54238;52.278;21.056;2023-07-13T09:46:47;8.20;;;3.00;;
67352;SDS011;54238;52.278;21.056;2023-07-13T09:49:27;5.90;;;3.30;;
67352;SDS011;54238;52.278;21.056;2023-07-13T09:52:01;8.50;;;3.00;;
67352;SDS011;54238;52.278;21.056;2023-07-13T09:54:35;5.90;;;3.60;;
67352;SDS011;54238;52.278;21.056;2023-07-13T09:57:16;6.30;;;3.40;;
67352;SDS011;54238;52.278;21.056;2023-07-13T09:59:48;6.20;;;3.70;;
67352;SDS011;54238;52.278;21.056;2023-07-13T10:02:31;7.70;;;3.20;;
67352;SDS011;54238;52.278;21.056;2023-07-13T10:05:14;4.90;;;3.30;;
67352;SDS011;54238;52.278;21.056;2023-07-13T10:07:47;7.70;;;3.70;;
67352;SDS011;54238;52.278;21.056;2023-07-13T10:10:21;7.10;;;4.00;;
67352;SDS011;54238;52.278;21.056;2023-07-13T10:12:49;4.30;;;3.60;;
67352;SDS011;54238;52.278;21.056;2023-07-13T10:15:27;4.90;;;3.40;;
67352;SDS011;54238;52.278;21.056;2023-07-13T10:17:59;5.00;;;3.20;;
67352;SDS011;54238;52.278;21.056;2023-07-13T10:20:32;5.00;;;3.20;;
67352;SDS011;54238;52.278;21.056;2023-07-13T10:23:02;5.80;;;3.20;;
67352;SDS011;54238;52.278;21.056;2023-07-13T10:25:38;4.80;;;3.20;;
67352;SDS011;54238;52.278;21.056;2023-07-13T10:28:29;5.30;;;3.40;;
67352;SDS011;54238;52.278;21.056;2023-07-13T10:31:01;3.50;;;3.00;;
67352;SDS011;54238;52.278;21.056;2023-07-13T10:33:32;3.40;;;2.90;;
67352;SDS011;54238;52.278;21.056;2023-07-13T10:39:04;5.70;;;3.70;;
67352;SDS011;54238;52.278;21.056;2023-07-13T10:41:41;4.80;;;3.30;;
67352;SDS011;54238;52.278;21.056;2023-07-13T10:44:23;8.70;;;5.00;;
67352;SDS011;54238;52.278;21.056;2023-07-13T10:49:33;5.40;;;3.70;;
67352;SDS011;54238;52.278;21.056;2023-07-13T10:55:32;9.60;;;3.40;;
67352;SDS011;54238;52.278;21.056;2023-07-13T10:58:13;5.80;;;3.50;;
67352;SDS011;54238;52.278;21.056;2023-07-13T11:12:01;4.60;;;3.10;;
67352;SDS011;54238;52.278;21.056;2023-07-13T11:15:05;4.40;;;3.20;;
67352;SDS011;54238;52.278;21.056;2023-07-13T11:25:37;18.70;;;10.80;;
67352;SDS011;54238;52.278;21.056;2023-07-13T11:30:38;5.90;;;4.70;;
67352;SDS011;54238;52.278;21.056;2023-07-13T11:41:19;15.90;;;6.80;;
67352;SDS011;54238;52.278;21.056;2023-07-13T11:43:54;10.40;;;5.80;;
67352;SDS011;54238;52.278;21.056;2023-07-13T11:46:38;11.50;;;5.60;;
67352;SDS011;54238;52.278;21.056;2023-07-13T11:49:07;11.60;;;5.90;;
67352;SDS011;54238;52.278;21.056;2023-07-13T11:51:38;9.00;;;4.90;;
67352;SDS011;54238;52.278;21.056;2023-07-13T11:54:22;9.20;;;4.80;;
67352;SDS011;54238;52.278;21.056;2023-07-13T11:57:16;7.80;;;4.50;;
67352;SDS011;54238;52.278;21.056;2023-07-13T11:59:55;8.10;;;4.60;;
67352;SDS011;54238;52.278;21.056;2023-07-13T12:02:34;8.50;;;5.50;;
67352;SDS011;54238;52.278;21.056;2023-07-13T12:05:05;8.30;;;5.20;;
67352;SDS011;54238;52.278;21.056;2023-07-13T12:07:36;9.20;;;5.80;;
67352;SDS011;54238;52.278;21.056;2023-07-13T12:12:48;7.30;;;5.10;;
67352;SDS011;54238;52.278;21.056;2023-07-13T12:15:28;6.50;;;4.30;;
67352;SDS011;54238;52.278;21.056;2023-07-13T12:18:20;9.00;;;4.70;;
67352;SDS011;54238;52.278;21.056;2023-07-13T12:20:56;7.60;;;5.10;;
67352;SDS011;54238;52.278;21.056;2023-07-13T12:26:06;10.80;;;5.60;;
67352;SDS011;54238;52.278;21.056;2023-07-13T12:28:49;7.60;;;5.30;;
67352;SDS011;54238;52.278;21.056;2023-07-13T12:34:08;10.20;;;5.40;;
67352;SDS011;54238;52.278;21.056;2023-07-13T12:36:48;11.60;;;6.00;;
67352;SDS011;54238;52.278;21.056;2023-07-13T12:41:54;9.40;;;5.80;;
67352;SDS011;54238;52.278;21.056;2023-07-13T12:45:03;13.90;;;6.40;;
67352;SDS011;54238;52.278;21.056;2023-07-13T12:47:53;12.30;;;6.40;;
67352;SDS011;54238;52.278;21.056;2023-07-13T12:50:45;12.40;;;6.10;;
67352;SDS011;54238;52.278;21.056;2023-07-13T12:53:24;12.50;;;5.80;;
67352;SDS011;54238;52.278;21.056;2023-07-13T12:56:01;9.20;;;6.30;;
67352;SDS011;54238;52.278;21.056;2023-07-13T12:58:40;10.90;;;6.70;;
67352;SDS011;54238;52.278;21.056;2023-07-13T13:01:16;9.70;;;6.70;;
67352;SDS011;54238;52.278;21.056;2023-07-13T13:03:49;13.70;;;7.20;;
67352;SDS011;54238;52.278;21.056;2023-07-13T13:06:26;11.00;;;6.50;;
67352;SDS011;54238;52.278;21.056;2023-07-13T13:09:00;11.00;;;7.20;;
67352;SDS011;54238;52.278;21.056;2023-07-13T13:11:29;13.60;;;8.00;;
67352;SDS011;54238;52.278;21.056;2023-07-13T13:13:57;12.20;;;6.40;;
67352;SDS011;54238;52.278;21.056;2023-07-13T13:16:44;9.80;;;6.70;;
67352;SDS011;54238;52.278;21.056;2023-07-13T13:21:49;8.00;;;5.50;;
67352;SDS011;54238;52.278;21.056;2023-07-13T13:24:26;13.80;;;6.80;;
67352;SDS011;54238;52.278;21.056;2023-07-13T13:26:54;9.90;;;7.00;;
67352;SDS011;54238;52.278;21.056;2023-07-13T13:29:24;14.50;;;8.10;;
67352;SDS011;54238;52.278;21.056;2023-07-13T13:31:55;13.70;;;7.40;;
67352;SDS011;54238;52.278;21.056;2023-07-13T13:34:25;13.80;;;7.60;;
67352;SDS011;54238;52.278;21.056;2023-07-13T13:36:54;15.20;;;7.90;;
67352;SDS011;54238;52.278;21.056;2023-07-13T13:39:25;13.70;;;7.40;;
67352;SDS011;54238;52.278;21.056;2023-07-13T13:42:09;17.90;;;8.70;;
67352;SDS011;54238;52.278;21.056;2023-07-13T13:44:37;15.30;;;8.40;;
67352;SDS011;54238;52.278;21.056;2023-07-13T13:47:07;13.00;;;8.50;;
67352;SDS011;54238;52.278;21.056;2023-07-13T13:49:50;17.00;;;8.20;;
67352;SDS011;54238;52.278;21.056;2023-07-13T13:52:20;14.50;;;8.50;;
67352;SDS011;54238;52.278;21.056;2023-07-13T13:54:47;18.90;;;9.50;;
67352;SDS011;54238;52.278;21.056;2023-07-13T13:57:17;19.50;;;9.10;;
67352;SDS011;54238;52.278;21.056;2023-07-13T13:59:49;16.70;;;9.70;;
67352;SDS011;54238;52.278;21.056;2023-07-13T14:02:29;18.10;;;10.10;;
67352;SDS011;54238;52.278;21.056;2023-07-13T14:05:01;24.30;;;10.20;;
67352;SDS011;54238;52.278;21.056;2023-07-13T14:07:30;20.30;;;10.50;;
67352;SDS011;54238;52.278;21.056;2023-07-13T14:10:11;20.50;;;10.20;;
67352;SDS011;54238;52.278;21.056;2023-07-13T14:12:50;18.70;;;10.20;;
67352;SDS011;54238;52.278;21.056;2023-07-13T14:15:24;17.60;;;10.30;;
67352;SDS011;54238;52.278;21.056;2023-07-13T14:17:54;16.20;;;9.60;;
67352;SDS011;54238;52.278;21.056;2023-07-13T14:20:26;17.30;;;10.90;;
67352;SDS011;54238;52.278;21.056;2023-07-13T14:22:54;20.60;;;12.50;;
67352;SDS011;54238;52.278;21.056;2023-07-13T14:25:22;14.90;;;10.30;;
67352;SDS011;54238;52.278;21.056;2023-07-13T14:28:00;15.10;;;8.90;;
67352;SDS011;54238;52.278;21.056;2023-07-13T14:30:38;18.00;;;9.50;;
67352;SDS011;54238;52.278;21.056;2023-07-13T14:33:11;13.90;;;9.00;;
67352;SDS011;54238;52.278;21.056;2023-07-13T14:35:40;15.20;;;9.90;;
67352;SDS011;54238;52.278;21.056;2023-07-13T14:38:12;17.20;;;10.10;;
67352;SDS011;54238;52.278;21.056;2023-07-13T14:40:42;16.70;;;10.10;;
67352;SDS011;54238;52.278;21.056;2023-07-13T14:43:15;16.90;;;10.30;;
67352;SDS011;54238;52.278;21.056;2023-07-13T14:45:47;16.60;;;10.90;;
67352;SDS011;54238;52.278;21.056;2023-07-13T14:48:21;18.20;;;11.40;;
67352;SDS011;54238;52.278;21.056;2023-07-13T14:50:56;16.80;;;11.40;;
67352;SDS011;54238;52.278;21.056;2023-07-13T14:53:27;21.30;;;11.20;;
67352;SDS011;54238;52.278;21.056;2023-07-13T14:55:57;18.10;;;11.20;;
67352;SDS011;54238;52.278;21.056;2023-07-13T14:58:29;17.20;;;11.30;;
67352;SDS011;54238;52.278;21.056;2023-07-13T15:00:56;14.10;;;9.90;;
67352;SDS011;54238;52.278;21.056;2023-07-13T15:03:25;16.70;;;10.70;;
67352;SDS011;54238;52.278;21.056;2023-07-13T15:05:55;17.70;;;9.60;;
67352;SDS011;54238;52.278;21.056;2023-07-13T15:08:22;15.20;;;10.00;;
67352;SDS011;54238;52.278;21.056;2023-07-13T15:10:52;15.70;;;9.20;;
67352;SDS011;54238;52.278;21.056;2023-07-13T15:13:24;11.90;;;9.30;;
67352;SDS011;54238;52.278;21.056;2023-07-13T15:15:53;15.40;;;10.00;;
67352;SDS011;54238;52.278;21.056;2023-07-13T15:18:24;14.50;;;10.00;;
67352;SDS011;54238;52.278;21.056;2023-07-13T15:20:52;12.70;;;9.60;;
67352;SDS011;54238;52.278;21.056;2023-07-13T15:23:19;16.10;;;11.30;;
67352;SDS011;54238;52.278;21.056;2023-07-13T15:25:46;17.90;;;10.30;;
67352;SDS011;54238;52.278;21.056;2023-07-13T15:28:16;14.90;;;10.40;;
67352;SDS011;54238;52.278;21.056;2023-07-13T15:30:49;15.00;;;10.30;;
67352;SDS011;54238;52.278;21.056;2023-07-13T15:33:24;14.80;;;10.00;;
67352;SDS011;54238;52.278;21.056;2023-07-13T15:35:58;14.40;;;10.40;;
67352;SDS011;54238;52.278;21.056;2023-07-13T15:38:30;13.70;;;8.60;;
67352;SDS011;54238;52.278;21.056;2023-07-13T15:41:00;9.40;;;7.30;;
67352;SDS011;54238;52.278;21.056;2023-07-13T15:43:32;9.70;;;7.00;;
67352;SDS011;54238;52.278;21.056;2023-07-13T15:46:04;9.90;;;6.70;;
67352;SDS011;54238;52.278;21.056;2023-07-13T15:48:37;7.50;;;5.20;;
67352;SDS011;54238;52.278;21.056;2023-07-13T15:51:11;8.80;;;5.50;;
67352;SDS011;54238;52.278;21.056;2023-07-13T15:53:44;9.00;;;5.80;;
67352;SDS011;54238;52.278;21.056;2023-07-13T15:56:20;6.90;;;5.50;;
67352;SDS011;54238;52.278;21.056;2023-07-13T15:58:50;8.20;;;5.80;;
67352;SDS011;54238;52.278;21.056;2023-07-13T16:01:21;7.00;;;5.30;;
67352;SDS011;54238;52.278;21.056;2023-07-13T16:03:53;9.20;;;6.00;;
67352;SDS011;54238;52.278;21.056;2023-07-13T16:06:23;9.30;;;6.50;;